Time;durP1;ratioP1;P1;durP2;ratioP2;P2;SDS_P1;SDS_P2;PMS_P1;PMS_P2;Temp;Humidity;BMP_temperature;BMP_pressure;BME280_temperature;BME280_humidity;BME280_pressure;Samples;Min_cycle;Max_cycle;Signal;HPM_P1;HPM_P2
2021/06/16 00:00:00;;;;;;;4.95;1.48;;;17.40;99.90;;;;;;5027595;28;20037;-67
2021/06/16 00:02:25;;;;;;;3.97;0.77;;;17.40;99.90;;;;;;5026547;28;20734;-67
2021/06/16 00:04:51;;;;;;;7.03;1.02;;;17.30;99.90;;;;;;5027594;28;20044;-67
2021/06/16 00:07:17;;;;;;;4.40;0.93;;;17.30;99.90;;;;;;5026870;28;20042;-67
2021/06/16 00:09:42;;;;;;;3.60;0.88;;;17.30;99.90;;;;;;5027008;28;20048;-67
2021/06/16 00:12:09;;;;;;;10.73;0.98;;;17.20;99.90;;;;;;5025497;28;20057;-68
2021/06/16 00:14:35;;;;;;;5.85;0.93;;;17.20;99.90;;;;;;5027073;28;20581;-67
2021/06/16 00:17:00;;;;;;;6.13;1.08;;;17.20;99.90;;;;;;5027332;28;20054;-67
2021/06/16 00:19:26;;;;;;;4.63;0.90;;;17.10;99.90;;;;;;5026272;28;20079;-67
2021/06/16 00:21:52;;;;;;;5.00;1.00;;;17.10;99.90;;;;;;5026738;28;20041;-67
2021/06/16 00:24:20;;;;;;;7.22;1.15;;;17.10;99.90;;;;;;5026618;28;20056;-67
2021/06/16 00:26:49;;;;;;;13.70;1.00;;;17.10;99.90;;;;;;5027093;28;20040;-67
2021/06/16 00:29:15;;;;;;;6.55;1.35;;;17.10;99.90;;;;;;5026212;28;20445;-67
2021/06/16 00:31:41;;;;;;;6.82;0.80;;;17.10;99.90;;;;;;5026366;28;20034;-67
2021/06/16 00:34:07;;;;;;;4.82;1.13;;;17.10;99.90;;;;;;5026964;28;20021;-67
2021/06/16 00:36:33;;;;;;;10.93;1.30;;;17.00;99.90;;;;;;5025698;28;20075;-67
2021/06/16 00:38:59;;;;;;;5.63;1.13;;;17.00;99.90;;;;;;5027121;28;20094;-67
2021/06/16 00:41:26;;;;;;;8.23;1.10;;;17.10;99.90;;;;;;5025399;28;20041;-67
2021/06/16 00:43:52;;;;;;;4.43;1.10;;;17.10;99.90;;;;;;5026506;28;20498;-67
2021/06/16 00:46:17;;;;;;;4.20;0.98;;;17.00;99.90;;;;;;5025781;28;20044;-67
2021/06/16 00:48:43;;;;;;;4.75;1.30;;;17.00;99.90;;;;;;5026480;28;20021;-67
2021/06/16 00:51:08;;;;;;;7.28;1.10;;;17.00;99.90;;;;;;5025875;28;20473;-66
2021/06/16 00:53:34;;;;;;;3.58;1.00;;;17.00;99.90;;;;;;5025944;28;20113;-67
2021/06/16 00:56:00;;;;;;;5.43;1.52;;;16.90;99.90;;;;;;5026861;28;20042;-67
2021/06/16 00:58:25;;;;;;;3.50;1.23;;;16.90;99.90;;;;;;5025630;28;20037;-67
2021/06/16 01:01:12;;;;;;;5.97;1.10;;;16.80;99.90;;;;;;5008279;28;20725;-67
2021/06/16 01:03:37;;;;;;;3.40;0.70;;;16.80;99.90;;;;;;5024928;28;20144;-67
2021/06/16 01:06:15;;;;;;;5.30;1.20;;;16.80;99.90;;;;;;5041853;28;20561;-67
2021/06/16 01:08:50;;;;;;;3.35;0.90;;;16.70;99.90;;;;;;5022207;28;20099;-67
2021/06/16 01:11:17;;;;;;;6.30;1.48;;;16.70;99.90;;;;;;5025332;28;20040;-67
2021/06/16 01:13:50;;;;;;;2.65;1.02;;;16.70;99.90;;;;;;5024747;28;20047;-67
2021/06/16 01:16:21;;;;;;;4.80;1.10;;;16.70;99.90;;;;;;5026217;28;20460;-67
2021/06/16 01:18:51;;;;;;;2.25;0.93;;;16.70;99.90;;;;;;5025442;28;20033;-67
2021/06/16 01:21:18;;;;;;;4.32;0.88;;;16.70;99.90;;;;;;5025440;28;20067;-67
2021/06/16 01:24:13;;;;;;;3.35;0.95;;;16.60;99.90;;;;;;5025604;28;20517;-67
2021/06/16 01:26:45;;;;;;;6.90;1.88;;;16.70;99.90;;;;;;5004302;28;20500;-68
2021/06/16 01:29:10;;;;;;;5.03;1.67;;;16.60;99.90;;;;;;5008175;28;20505;-68
2021/06/16 01:31:37;;;;;;;5.38;1.10;;;16.60;99.90;;;;;;5040539;28;20038;-67
2021/06/16 01:34:04;;;;;;;6.78;1.17;;;16.60;99.90;;;;;;5025614;28;20055;-67
2021/06/16 01:36:33;;;;;;;6.05;1.10;;;16.60;99.90;;;;;;5025606;28;20033;-68
2021/06/16 01:39:00;;;;;;;5.18;0.82;;;16.50;99.90;;;;;;5025725;28;20035;-68
2021/06/16 01:41:26;;;;;;;7.93;1.45;;;16.50;99.90;;;;;;5024999;28;20044;-68
2021/06/16 01:43:54;;;;;;;5.10;1.15;;;16.50;99.90;;;;;;5025503;28;20034;-67
2021/06/16 01:46:23;;;;;;;6.28;1.00;;;16.50;99.90;;;;;;5008356;28;20128;-67
2021/06/16 01:48:49;;;;;;;4.70;1.17;;;16.50;99.90;;;;;;5025287;28;20501;-67
2021/06/16 01:51:16;;;;;;;6.93;1.40;;;16.50;99.90;;;;;;5025372;28;20041;-67
2021/06/16 01:53:41;;;;;;;3.40;1.08;;;16.50;99.90;;;;;;5008025;28;20753;-67
2021/06/16 01:56:08;;;;;;;2.42;1.00;;;16.50;99.90;;;;;;5007709;28;20049;-67
2021/06/16 01:58:35;;;;;;;5.50;1.00;;;16.50;99.90;;;;;;5025374;28;20036;-67
2021/06/16 02:01:02;;;;;;;2.60;0.70;;;16.50;99.90;;;;;;5021109;28;20036;-67
2021/06/16 02:03:28;;;;;;;5.30;0.90;;;16.50;99.90;;;;;;5025034;28;20494;-67
2021/06/16 02:05:57;;;;;;;4.80;1.15;;;16.50;99.90;;;;;;5025294;28;20498;-67
2021/06/16 02:08:26;;;;;;;10.73;1.40;;;16.40;99.90;;;;;;5007554;28;20037;-67
2021/06/16 02:10:53;;;;;;;5.90;1.85;;;16.40;99.90;;;;;;5025205;28;20036;-67
2021/06/16 02:13:44;;;;;;;5.63;1.30;;;16.40;99.90;;;;;;5024185;28;20076;-67
2021/06/16 02:16:17;;;;;;;6.88;1.30;;;16.40;99.90;;;;;;5010936;28;20033;-67
2021/06/16 02:18:53;;;;;;;6.30;1.02;;;16.40;99.90;;;;;;5025267;28;20029;-67
2021/06/16 02:21:19;;;;;;;7.43;2.00;;;16.40;99.90;;;;;;5024698;28;20065;-67
2021/06/16 02:23:46;;;;;;;7.20;1.25;;;16.40;99.90;;;;;;5025330;28;20037;-67
2021/06/16 02:26:13;;;;;;;8.02;1.13;;;16.40;99.90;;;;;;5028784;28;20086;-67
2021/06/16 02:28:39;;;;;;;4.18;1.23;;;16.50;99.90;;;;;;5029262;28;20048;-67
2021/06/16 02:31:05;;;;;;;5.97;1.65;;;16.50;99.90;;;;;;5027858;28;20065;-67
2021/06/16 02:33:30;;;;;;;10.15;1.30;;;16.50;99.90;;;;;;5011279;28;20076;-67
2021/06/16 02:35:56;;;;;;;4.88;1.35;;;16.60;99.90;;;;;;5011790;28;20057;-67
2021/06/16 02:38:25;;;;;;;7.45;1.25;;;16.50;99.90;;;;;;5028335;28;20030;-67
2021/06/16 02:40:53;;;;;;;5.57;1.00;;;16.50;99.90;;;;;;5010935;28;20083;-67
2021/06/16 02:43:21;;;;;;;3.45;0.80;;;16.50;99.90;;;;;;5028182;28;20042;-67
2021/06/16 02:45:48;;;;;;;7.43;2.33;;;16.40;99.90;;;;;;5011360;28;20033;-67
2021/06/16 02:48:14;;;;;;;5.00;1.60;;;16.40;99.90;;;;;;5028066;28;20048;-67
2021/06/16 02:50:43;;;;;;;5.60;0.98;;;16.40;99.90;;;;;;5028632;28;20432;-67
2021/06/16 02:53:15;;;;;;;6.47;1.10;;;16.40;99.90;;;;;;5028401;28;20418;-67
2021/06/16 02:55:42;;;;;;;3.20;1.25;;;16.30;99.90;;;;;;5028973;28;20037;-67
2021/06/16 02:58:10;;;;;;;4.82;1.25;;;16.30;99.90;;;;;;5028663;28;20044;-67
2021/06/16 03:00:36;;;;;;;4.03;1.15;;;16.30;99.90;;;;;;5028544;28;20489;-66
2021/06/16 03:03:04;;;;;;;10.35;1.83;;;16.30;99.90;;;;;;5029107;28;20864;-68
2021/06/16 03:05:30;;;;;;;7.10;1.60;;;16.30;99.90;;;;;;5028066;28;20516;-67
2021/06/16 03:07:58;;;;;;;3.25;1.40;;;16.30;99.90;;;;;;5028838;28;20042;-67
2021/06/16 03:10:25;;;;;;;6.57;1.33;;;16.30;99.90;;;;;;5027710;28;20033;-67
2021/06/16 03:12:54;;;;;;;12.77;1.63;;;16.30;99.90;;;;;;5027790;28;20034;-67
2021/06/16 03:15:20;;;;;;;9.73;1.40;;;16.30;99.90;;;;;;5027867;28;20033;-67
2021/06/16 03:17:47;;;;;;;8.05;1.27;;;16.20;99.90;;;;;;5028699;28;20053;-67
2021/06/16 03:20:15;;;;;;;4.47;0.90;;;16.20;99.90;;;;;;5027618;28;20038;-67
2021/06/16 03:22:43;;;;;;;7.38;1.25;;;16.20;99.90;;;;;;5027753;28;20103;-67
2021/06/16 03:25:10;;;;;;;20.48;1.80;;;16.30;99.90;;;;;;5027985;28;20445;-72
2021/06/16 03:27:37;;;;;;;3.10;0.88;;;16.20;99.90;;;;;;5027263;28;20398;-67
2021/06/16 03:30:04;;;;;;;4.95;1.30;;;16.20;99.90;;;;;;5027848;28;20033;-67
2021/06/16 03:32:31;;;;;;;7.78;1.50;;;16.20;99.90;;;;;;5026906;28;20025;-67
2021/06/16 03:34:57;;;;;;;8.38;1.45;;;16.30;99.90;;;;;;5023884;28;20029;-67
2021/06/16 03:37:24;;;;;;;4.50;1.10;;;16.30;99.90;;;;;;5027297;28;20029;-67
2021/06/16 03:39:51;;;;;;;4.40;1.27;;;16.30;99.90;;;;;;5027623;28;20038;-66
2021/06/16 03:42:21;;;;;;;3.78;1.27;;;16.30;99.90;;;;;;5026698;28;20033;-67
2021/06/16 03:44:48;;;;;;;6.60;1.40;;;16.30;99.90;;;;;;5027842;28;20060;-67
2021/06/16 03:47:15;;;;;;;2.75;0.95;;;16.30;99.90;;;;;;5009615;28;20080;-71
2021/06/16 03:49:44;;;;;;;3.72;1.00;;;16.30;99.90;;;;;;5027393;28;20041;-67
2021/06/16 03:52:11;;;;;;;5.22;1.23;;;16.30;99.90;;;;;;5027726;28;20064;-67
2021/06/16 03:54:39;;;;;;;6.85;2.03;;;16.30;99.90;;;;;;5026939;28;20037;-67
2021/06/16 03:57:06;;;;;;;5.97;1.00;;;16.40;99.90;;;;;;5010036;28;20061;-67
2021/06/16 03:59:32;;;;;;;3.72;1.38;;;16.40;99.90;;;;;;5026594;28;20030;-67
2021/06/16 04:01:58;;;;;;;12.65;1.45;;;16.40;99.90;;;;;;5026997;28;20083;-67
2021/06/16 04:04:24;;;;;;;15.15;1.50;;;16.40;99.90;;;;;;5026984;28;20128;-67
2021/06/16 04:06:50;;;;;;;6.50;1.50;;;16.40;99.90;;;;;;5009675;28;20551;-67
2021/06/16 04:09:15;;;;;;;5.63;1.38;;;16.40;99.90;;;;;;5009207;28;20033;-67
2021/06/16 04:11:43;;;;;;;2.33;0.98;;;16.40;99.90;;;;;;5024747;28;20068;-67
2021/06/16 04:14:08;;;;;;;5.93;1.05;;;16.40;99.90;;;;;;5027336;28;20083;-67
2021/06/16 04:16:34;;;;;;;6.82;0.93;;;16.50;99.90;;;;;;5008779;28;20444;-67
2021/06/16 04:19:00;;;;;;;5.55;1.05;;;16.50;99.90;;;;;;5026904;28;20713;-67
2021/06/16 04:21:26;;;;;;;3.47;1.00;;;16.50;99.90;;;;;;5026066;28;20108;-67
2021/06/16 04:23:52;;;;;;;6.75;2.13;;;16.50;99.90;;;;;;5027193;28;20379;-68
2021/06/16 04:26:19;;;;;;;10.07;1.40;;;16.50;99.90;;;;;;5027168;28;20037;-69
2021/06/16 04:28:45;;;;;;;8.65;1.67;;;16.60;99.90;;;;;;5026232;28;20029;-68
2021/06/16 04:31:11;;;;;;;6.72;1.00;;;16.70;99.90;;;;;;5026049;28;20048;-68
2021/06/16 04:33:37;;;;;;;4.85;1.15;;;16.70;99.90;;;;;;5026290;28;20037;-69
2021/06/16 04:36:04;;;;;;;5.70;1.20;;;16.70;99.90;;;;;;5027043;28;20404;-69
2021/06/16 04:38:30;;;;;;;6.00;1.15;;;16.80;99.90;;;;;;5008558;28;20379;-68
2021/06/16 04:40:56;;;;;;;5.22;1.83;;;16.80;99.90;;;;;;5009033;28;20536;-68
2021/06/16 04:43:23;;;;;;;5.53;1.13;;;16.90;99.90;;;;;;5038107;28;20036;-68
2021/06/16 04:45:48;;;;;;;5.60;1.23;;;16.90;99.90;;;;;;5008870;28;20512;-68
2021/06/16 04:48:14;;;;;;;5.25;1.13;;;16.90;99.90;;;;;;5026065;28;20120;-66
2021/06/16 04:50:39;;;;;;;4.25;1.42;;;17.00;99.90;;;;;;5017236;28;20405;-69
2021/06/16 04:53:05;;;;;;;8.45;1.27;;;17.10;99.90;;;;;;5022743;28;20508;-68
2021/06/16 04:55:32;;;;;;;4.93;0.98;;;17.10;99.90;;;;;;5022023;28;20029;-68
2021/06/16 04:57:57;;;;;;;5.90;1.10;;;17.20;99.90;;;;;;5021823;28;20112;-68
2021/06/16 05:00:23;;;;;;;4.45;0.95;;;17.30;99.90;;;;;;5025455;28;20186;-68
2021/06/16 05:02:56;;;;;;;11.13;1.55;;;17.30;99.90;;;;;;5023378;28;20061;-68
2021/06/16 05:05:23;;;;;;;5.78;1.52;;;17.40;99.90;;;;;;5019439;28;20040;-68
2021/06/16 05:07:48;;;;;;;7.00;1.42;;;17.40;99.90;;;;;;5022073;28;20379;-68
2021/06/16 05:10:14;;;;;;;2.25;0.93;;;17.50;99.90;;;;;;5022026;28;20047;-68
2021/06/16 05:12:41;;;;;;;6.93;1.27;;;17.60;99.90;;;;;;5040471;28;20039;-68
2021/06/16 05:15:07;;;;;;;9.70;1.30;;;17.60;99.90;;;;;;5022742;28;20037;-68
2021/06/16 05:17:32;;;;;;;6.65;1.83;;;17.70;99.90;;;;;;5022047;28;20064;-68
2021/06/16 05:19:58;;;;;;;8.05;1.42;;;17.80;99.90;;;;;;5020761;28;20052;-68
2021/06/16 05:22:25;;;;;;;5.97;1.10;;;17.90;99.90;;;;;;5021606;28;20091;-68
2021/06/16 05:24:51;;;;;;;8.55;1.00;;;18.00;99.90;;;;;;5020604;28;20022;-68
2021/06/16 05:27:17;;;;;;;4.60;1.33;;;18.20;99.90;;;;;;5022069;28;20036;-68
2021/06/16 05:29:43;;;;;;;2.55;1.15;;;18.40;99.90;;;;;;5021539;28;20037;-68
2021/06/16 05:32:10;;;;;;;7.43;1.50;;;18.50;99.90;;;;;;5021582;28;20126;-68
2021/06/16 05:34:36;;;;;;;5.20;0.85;;;18.80;99.90;;;;;;5022148;28;20209;-68
2021/06/16 05:37:02;;;;;;;8.43;1.10;;;19.10;99.90;;;;;;5021500;28;20709;-69
2021/06/16 05:39:28;;;;;;;6.07;1.40;;;19.40;99.90;;;;;;5019284;28;20091;-67
2021/06/16 05:41:54;;;;;;;6.05;1.30;;;19.70;99.60;;;;;;5020389;28;20049;-67
2021/06/16 05:44:19;;;;;;;5.93;1.45;;;20.00;98.90;;;;;;5022708;28;20041;-69
2021/06/16 05:46:45;;;;;;;5.13;1.75;;;20.10;98.80;;;;;;5022040;28;20032;-68
2021/06/16 05:49:11;;;;;;;6.25;1.30;;;20.30;98.20;;;;;;5021452;28;20453;-68
2021/06/16 05:51:37;;;;;;;8.25;1.45;;;20.50;97.60;;;;;;5021133;28;20022;-68
2021/06/16 05:54:02;;;;;;;5.30;1.20;;;20.70;97.20;;;;;;5022103;28;20028;-67
2021/06/16 05:56:28;;;;;;;6.25;1.52;;;20.90;96.60;;;;;;5021022;28;20121;-68
2021/06/16 05:58:53;;;;;;;5.72;1.77;;;20.90;96.50;;;;;;5023101;28;20041;-68
2021/06/16 06:01:19;;;;;;;5.95;1.35;;;21.00;96.40;;;;;;5025291;28;20033;-67
2021/06/16 06:03:44;;;;;;;4.07;1.30;;;21.10;96.50;;;;;;5023493;28;20041;-67
2021/06/16 06:06:10;;;;;;;7.15;1.80;;;21.20;96.60;;;;;;5025614;28;20065;-67
2021/06/16 06:08:36;;;;;;;7.47;2.00;;;21.30;95.60;;;;;;5025406;28;20044;-65
2021/06/16 06:11:03;;;;;;;6.75;1.35;;;21.40;95.30;;;;;;5025417;28;20040;-65
2021/06/16 06:13:29;;;;;;;8.90;1.90;;;21.60;95.40;;;;;;5026174;28;20037;-68
2021/06/16 06:15:54;;;;;;;11.15;1.08;;;21.80;94.40;;;;;;5025215;28;20420;-67
2021/06/16 06:18:20;;;;;;;9.10;1.42;;;21.90;94.40;;;;;;5007986;28;20041;-67
2021/06/16 06:20:46;;;;;;;3.80;1.10;;;22.10;93.50;;;;;;5009408;28;20037;-67
2021/06/16 06:23:11;;;;;;;8.20;1.48;;;22.20;93.00;;;;;;5025101;28;20102;-68
2021/06/16 06:25:37;;;;;;;6.78;1.50;;;22.40;92.50;;;;;;5026184;28;20509;-66
2021/06/16 06:28:03;;;;;;;4.57;1.05;;;22.40;92.10;;;;;;5027829;28;20420;-66
2021/06/16 06:30:29;;;;;;;5.85;1.08;;;22.60;92.70;;;;;;5028881;28;20069;-67
2021/06/16 06:32:54;;;;;;;6.90;1.25;;;22.90;91.80;;;;;;5027427;28;20072;-67
2021/06/16 06:35:20;;;;;;;5.35;1.20;;;23.20;90.50;;;;;;5024637;28;20041;-67
2021/06/16 06:37:45;;;;;;;7.18;1.40;;;23.60;90.10;;;;;;5026123;28;20072;-68
2021/06/16 06:40:11;;;;;;;3.50;1.23;;;23.90;88.90;;;;;;5024031;28;20571;-68
2021/06/16 06:42:37;;;;;;;6.72;1.20;;;24.30;86.10;;;;;;5025001;28;20042;-68
2021/06/16 06:45:05;;;;;;;6.05;1.27;;;24.60;84.40;;;;;;5025007;28;20401;-67
2021/06/16 06:47:31;;;;;;;4.82;1.00;;;25.20;81.80;;;;;;5025234;28;20038;-66
2021/06/16 06:49:56;;;;;;;4.35;1.40;;;25.80;79.60;;;;;;5024935;28;20036;-65
2021/06/16 06:52:22;;;;;;;6.32;1.67;;;26.80;75.30;;;;;;5024265;28;20036;-67
2021/06/16 06:54:48;;;;;;;3.75;1.05;;;27.50;71.90;;;;;;5025723;28;20030;-68
2021/06/16 06:57:13;;;;;;;8.73;1.25;;;28.20;68.70;;;;;;5024339;28;20788;-66
2021/06/16 06:59:39;;;;;;;11.70;1.50;;;28.40;66.90;;;;;;5024968;28;20037;-65
2021/06/16 07:02:04;;;;;;;3.28;0.82;;;29.10;63.70;;;;;;5023173;28;20037;-65
2021/06/16 07:04:30;;;;;;;3.20;0.90;;;29.50;61.80;;;;;;5025612;28;20127;-68
2021/06/16 07:06:55;;;;;;;5.07;1.15;;;29.90;59.50;;;;;;5024506;28;20025;-67
2021/06/16 07:09:21;;;;;;;3.40;0.90;;;30.30;57.70;;;;;;5024649;28;20029;-67
2021/06/16 07:11:47;;;;;;;3.83;0.98;;;30.60;57.50;;;;;;5024045;28;20041;-68
2021/06/16 07:14:12;;;;;;;4.07;0.98;;;31.00;56.10;;;;;;5023893;28;20075;-68
2021/06/16 07:16:38;;;;;;;5.18;1.00;;;31.30;53.70;;;;;;5024649;28;20029;-68
2021/06/16 07:19:03;;;;;;;4.93;1.90;;;31.50;53.00;;;;;;5006187;28;20251;-68
2021/06/16 07:21:29;;;;;;;3.05;0.95;;;31.70;52.30;;;;;;5024298;28;20591;-68
2021/06/16 07:23:54;;;;;;;5.53;1.00;;;32.10;53.40;;;;;;5024648;28;20047;-68
2021/06/16 07:26:20;;;;;;;4.47;1.00;;;32.40;50.30;;;;;;5023843;28;20146;-68
2021/06/16 07:28:45;;;;;;;5.15;0.90;;;32.40;51.50;;;;;;5024032;28;20433;-67
2021/06/16 07:31:11;;;;;;;3.70;1.00;;;32.10;51.50;;;;;;5023238;28;20077;-68
2021/06/16 07:33:37;;;;;;;2.30;1.10;;;32.00;52.50;;;;;;5023869;28;20042;-64
2021/06/16 07:36:03;;;;;;;6.25;1.83;;;32.10;50.40;;;;;;5023684;28;20036;-66
2021/06/16 07:38:28;;;;;;;6.25;1.55;;;31.70;50.60;;;;;;5026223;28;20599;-68
2021/06/16 07:40:54;;;;;;;7.35;1.58;;;31.20;51.10;;;;;;5023692;28;20042;-68
2021/06/16 07:43:20;;;;;;;4.88;1.40;;;31.20;52.10;;;;;;5023606;28;20985;-68
2021/06/16 07:45:45;;;;;;;5.00;1.30;;;31.20;51.90;;;;;;5023503;28;20034;-69
2021/06/16 07:48:11;;;;;;;4.70;1.40;;;30.80;51.60;;;;;;5022533;28;20079;-68
2021/06/16 07:50:37;;;;;;;7.72;2.15;;;30.90;52.40;;;;;;5024571;28;20433;-69
2021/06/16 07:53:04;;;;;;;4.70;1.17;;;30.70;51.90;;;;;;5023679;28;20428;-69
2021/06/16 07:55:30;;;;;;;8.82;1.73;;;30.60;52.30;;;;;;5021414;28;20041;-67
2021/06/16 07:57:56;;;;;;;3.42;1.30;;;30.50;52.30;;;;;;5023415;28;20040;-68
2021/06/16 08:00:21;;;;;;;6.97;1.65;;;30.70;52.40;;;;;;5022262;28;20045;-68
2021/06/16 08:02:47;;;;;;;5.88;1.20;;;30.70;51.20;;;;;;5022359;28;20045;-68
2021/06/16 08:05:13;;;;;;;5.93;1.30;;;30.70;51.50;;;;;;5022974;28;20045;-68
2021/06/16 08:07:39;;;;;;;6.63;1.30;;;30.60;51.50;;;;;;5022820;28;20041;-67
2021/06/16 08:10:05;;;;;;;5.63;1.13;;;30.70;50.70;;;;;;5022069;28;20037;-68
2021/06/16 08:12:31;;;;;;;3.40;1.20;;;30.90;50.10;;;;;;5022163;28;20040;-67
2021/06/16 08:14:57;;;;;;;4.03;1.38;;;30.70;50.50;;;;;;5023111;28;20031;-68
2021/06/16 08:17:22;;;;;;;3.38;1.55;;;30.70;51.00;;;;;;5022295;28;20168;-68
2021/06/16 08:19:48;;;;;;;5.63;1.48;;;30.60;51.30;;;;;;5022907;28;20051;-68
2021/06/16 08:22:14;;;;;;;2.58;1.75;;;31.00;50.70;;;;;;5020558;28;20520;-69
2021/06/16 08:24:41;;;;;;;13.38;1.98;;;31.20;50.70;;;;;;5023104;28;20025;-66
2021/06/16 08:27:07;;;;;;;3.17;1.25;;;31.20;50.80;;;;;;5022665;28;20029;-68
2021/06/16 08:29:33;;;;;;;9.75;2.00;;;31.30;49.90;;;;;;5022724;28;20037;-68
2021/06/16 08:31:59;;;;;;;3.17;1.42;;;31.60;50.30;;;;;;5021870;28;20110;-68
2021/06/16 08:34:24;;;;;;;15.75;1.80;;;31.90;49.60;;;;;;5022708;28;20636;-65
2021/06/16 08:36:50;;;;;;;4.50;1.33;;;31.60;49.70;;;;;;5022888;28;20044;-66
2021/06/16 08:39:16;;;;;;;5.93;1.23;;;31.50;48.90;;;;;;5021658;28;20111;-67
2021/06/16 08:41:42;;;;;;;5.07;1.38;;;31.50;49.60;;;;;;5022272;28;20110;-67
2021/06/16 08:44:09;;;;;;;9.32;1.50;;;31.60;49.50;;;;;;5021092;28;20044;-67
2021/06/16 08:46:35;;;;;;;6.93;1.23;;;31.50;48.50;;;;;;5021918;28;20049;-65
2021/06/16 08:49:05;;;;;;;6.20;1.40;;;31.70;48.50;;;;;;5022393;28;20064;-67
2021/06/16 08:51:31;;;;;;;2.33;1.30;;;31.80;48.60;;;;;;5021298;28;20045;-70
2021/06/16 08:53:57;;;;;;;11.02;1.70;;;31.90;48.70;;;;;;5022823;28;20041;-69
2021/06/16 08:56:22;;;;;;;5.35;1.95;;;31.50;48.90;;;;;;5021739;28;20037;-67
2021/06/16 08:58:48;;;;;;;4.28;1.92;;;31.40;49.20;;;;;;5022581;28;20549;-67
2021/06/16 09:01:15;;;;;;;3.25;1.50;;;31.40;49.20;;;;;;5021805;28;20564;-66
2021/06/16 09:03:40;;;;;;;4.70;1.50;;;31.40;49.50;;;;;;5021826;28;20041;-68
2021/06/16 09:06:12;;;;;;;3.17;1.50;;;31.50;49.70;;;;;;4999862;28;20042;-66
2021/06/16 09:08:51;;;;;;;3.58;1.52;;;31.80;49.30;;;;;;5021608;28;20102;-66
2021/06/16 09:11:21;;;;;;;6.10;2.15;;;31.90;49.80;;;;;;5020717;28;20045;-66
2021/06/16 09:13:46;;;;;;;;;;;31.90;50.00;;;;;;5022336;28;20442;-68
2021/06/16 09:16:29;;;;;;;6.70;2.08;;;32.10;49.90;;;;;;5022346;28;20004;-68
2021/06/16 09:18:56;;;;;;;5.68;1.85;;;32.10;50.50;;;;;;5002868;28;20040;-68
2021/06/16 09:21:38;;;;;;;4.47;1.50;;;32.00;49.60;;;;;;5021686;28;20835;-67
2021/06/16 09:24:06;;;;;;;3.67;1.58;;;31.90;49.60;;;;;;5021397;28;20447;-69
2021/06/16 09:26:34;;;;;;;6.03;1.38;;;31.60;50.00;;;;;;5022752;28;20041;-68
2021/06/16 09:29:00;;;;;;;8.98;1.55;;;31.70;50.40;;;;;;5020772;28;20111;-70
2021/06/16 09:31:33;;;;;;;7.18;1.27;;;31.50;50.60;;;;;;5021253;28;20076;-70
2021/06/16 09:34:07;;;;;;;4.50;1.70;;;31.30;50.20;;;;;;5020767;28;20030;-70
2021/06/16 09:36:33;;;;;;;2.85;1.00;;;30.90;50.80;;;;;;5020027;28;20809;-69
2021/06/16 09:39:08;;;;;;;4.45;1.15;;;30.70;51.10;;;;;;5021014;28;20040;-70
2021/06/16 09:41:35;;;;;;;3.85;1.30;;;30.40;52.20;;;;;;5020159;28;20494;-68
2021/06/16 09:44:01;;;;;;;3.50;1.05;;;30.10;52.00;;;;;;5003387;28;20037;-69
2021/06/16 09:46:26;;;;;;;4.20;1.20;;;30.00;52.70;;;;;;5021724;28;20625;-70
2021/06/16 09:48:52;;;;;;;5.15;1.50;;;30.00;54.00;;;;;;5021450;28;20107;-69
2021/06/16 09:51:24;;;;;;;3.97;1.33;;;30.00;52.40;;;;;;5021629;28;20041;-69
2021/06/16 09:54:14;;;;;;;3.85;1.17;;;29.90;53.20;;;;;;5022349;28;20061;-69
2021/06/16 09:56:44;;;;;;;4.25;0.98;;;29.90;53.10;;;;;;5005887;28;20104;-70
2021/06/16 09:59:12;;;;;;;6.45;1.40;;;29.90;53.00;;;;;;5015717;28;20902;-68
2021/06/16 10:01:45;;;;;;;4.15;1.40;;;29.80;52.50;;;;;;5024708;28;20033;-69
2021/06/16 10:04:29;;;;;;;5.93;1.00;;;29.70;52.90;;;;;;5021471;28;20303;-70
2021/06/16 10:07:09;;;;;;;3.30;0.98;;;29.70;53.10;;;;;;5018754;28;20029;-70
2021/06/16 10:09:35;;;;;;;6.05;0.70;;;29.90;53.00;;;;;;5017210;28;20037;-69
2021/06/16 10:12:00;;;;;;;5.60;1.20;;;30.00;52.60;;;;;;5017628;28;20052;-70
2021/06/16 10:14:26;;;;;;;4.25;0.80;;;30.00;52.50;;;;;;5017604;28;20137;-69
2021/06/16 10:16:54;;;;;;;2.42;1.00;;;29.80;52.70;;;;;;5019572;28;20056;-71
2021/06/16 10:19:20;;;;;;;3.67;1.20;;;29.90;53.10;;;;;;5011235;28;20135;-68
2021/06/16 10:21:46;;;;;;;3.10;0.95;;;30.00;52.30;;;;;;5016687;28;20040;-68
2021/06/16 10:24:12;;;;;;;1.50;0.73;;;30.10;53.50;;;;;;5008503;28;20041;-69
2021/06/16 10:26:38;;;;;;;4.60;0.90;;;30.10;52.80;;;;;;5017592;28;20585;-69
2021/06/16 10:29:09;;;;;;;6.20;1.33;;;30.20;52.90;;;;;;5015972;28;20083;-69
2021/06/16 10:31:40;;;;;;;4.75;1.02;;;30.30;53.30;;;;;;5016137;28;20037;-70
2021/06/16 10:34:06;;;;;;;2.90;0.70;;;30.20;52.10;;;;;;5018384;28;20033;-69
2021/06/16 10:36:32;;;;;;;3.25;0.80;;;30.20;53.20;;;;;;5017930;28;20136;-69
2021/06/16 10:39:00;;;;;;;2.17;1.17;;;30.30;52.60;;;;;;5020319;28;20120;-70
2021/06/16 10:41:41;;;;;;;8.93;1.13;;;30.40;51.50;;;;;;5019563;28;20049;-69
2021/06/16 10:44:28;;;;;;;5.90;0.88;;;30.40;52.90;;;;;;5017389;28;20037;-69
2021/06/16 10:47:02;;;;;;;8.40;1.17;;;30.30;53.60;;;;;;5023343;28;20041;-68
2021/06/16 10:49:40;;;;;;;3.85;1.13;;;30.40;52.70;;;;;;5025351;28;20117;-68
2021/06/16 10:52:06;;;;;;;2.17;0.80;;;30.40;51.20;;;;;;5023404;28;20099;-68
2021/06/16 10:54:33;;;;;;;2.70;0.80;;;30.30;52.50;;;;;;5023924;28;20028;-68
2021/06/16 10:57:10;;;;;;;4.35;0.90;;;30.30;51.90;;;;;;5024518;28;20091;-67
2021/06/16 10:59:45;;;;;;;8.07;1.85;;;30.20;54.50;;;;;;5021647;28;20878;-69
2021/06/16 11:02:18;;;;;;;2.00;1.13;;;30.30;52.40;;;;;;5023800;28;20053;-68
2021/06/16 11:04:45;;;;;;;3.65;1.20;;;30.20;53.60;;;;;;5023964;28;20030;-68
2021/06/16 11:07:32;;;;;;;2.17;1.10;;;30.10;53.70;;;;;;5024261;28;20034;-69
2021/06/16 11:09:59;;;;;;;3.42;1.63;;;30.00;53.10;;;;;;5023998;28;20037;-68
2021/06/16 11:12:31;;;;;;;4.53;1.30;;;29.80;53.60;;;;;;5024214;28;20041;-70
2021/06/16 11:15:02;;;;;;;2.67;1.20;;;29.50;54.00;;;;;;5024516;28;20140;-68
2021/06/16 11:17:27;;;;;;;6.82;1.20;;;29.40;54.20;;;;;;5024129;28;20482;-68
2021/06/16 11:20:01;;;;;;;2.92;1.30;;;29.50;54.70;;;;;;5006277;28;20123;-69
2021/06/16 11:22:26;;;;;;;2.92;0.80;;;29.50;54.20;;;;;;5024193;28;20044;-68
2021/06/16 11:25:34;;;;;;;2.75;1.45;;;29.60;54.50;;;;;;5022119;28;20025;-68
2021/06/16 11:28:04;;;;;;;3.80;1.30;;;29.60;54.80;;;;;;4961076;28;20030;-67
2021/06/16 11:30:51;;;;;;;3.22;1.30;;;29.70;57.10;;;;;;4950142;28;20043;-67
2021/06/16 11:33:17;;;;;;;4.10;1.63;;;29.70;56.30;;;;;;4995801;28;20099;-66
2021/06/16 11:36:01;;;;;;;4.68;1.65;;;29.70;57.10;;;;;;5020811;28;20033;-67
2021/06/16 11:38:39;;;;;;;3.55;1.48;;;29.80;55.90;;;;;;5024123;28;20551;-68
2021/06/16 11:41:20;;;;;;;3.60;1.40;;;29.80;56.80;;;;;;5022313;28;20768;-68
2021/06/16 11:44:07;;;;;;;4.97;1.63;;;29.80;56.20;;;;;;5022732;28;20037;-67
2021/06/16 11:46:39;;;;;;;3.38;1.27;;;29.70;56.50;;;;;;5021984;28;20445;-69
2021/06/16 11:49:10;;;;;;;9.77;1.90;;;29.80;56.60;;;;;;5024638;28;20422;-70
2021/06/16 11:51:40;;;;;;;4.40;1.85;;;30.00;56.60;;;;;;5020206;28;20029;-69
2021/06/16 11:54:32;;;;;;;6.82;1.65;;;30.10;56.40;;;;;;5020571;28;20037;-68
2021/06/16 11:57:01;;;;;;;3.92;1.80;;;30.10;55.40;;;;;;5022629;28;20773;-68
2021/06/16 11:59:40;;;;;;;5.70;2.35;;;30.00;55.20;;;;;;5002892;28;20064;-68
2021/06/16 12:02:20;;;;;;;3.97;1.70;;;30.10;56.70;;;;;;5019355;28;20048;-68
2021/06/16 12:04:53;;;;;;;;;;;30.20;55.70;;;;;;5020427;28;20060;-68
2021/06/16 12:07:33;;;;;;;8.18;1.67;;;30.10;56.10;;;;;;5005263;28;19913;-67
2021/06/16 12:10:11;;;;;;;4.13;1.83;;;30.20;55.50;;;;;;5020763;28;20030;-67
2021/06/16 12:12:46;;;;;;;7.65;1.77;;;30.30;56.20;;;;;;5020920;28;20073;-68
2021/06/16 12:15:22;;;;;;;3.15;1.67;;;30.50;56.90;;;;;;5023436;28;20049;-68
2021/06/16 12:18:01;;;;;;;6.40;2.08;;;30.70;55.40;;;;;;5023023;28;20045;-68
2021/06/16 12:20:47;;;;;;;;;;;30.70;55.10;;;;;;5023800;28;20044;-67
2021/06/16 12:23:43;;;;;;;4.80;1.50;;;30.70;55.50;;;;;;5021071;28;19987;-66
2021/06/16 12:26:15;;;;;;;11.02;2.05;;;30.80;55.60;;;;;;5021959;28;20049;-65
2021/06/16 12:28:45;;;;;;;4.95;2.15;;;30.80;55.30;;;;;;5003128;28;20775;-65
2021/06/16 12:31:17;;;;;;;7.32;2.88;;;30.70;55.50;;;;;;5019105;28;20051;-65
2021/06/16 12:33:49;;;;;;;10.93;2.35;;;30.70;55.00;;;;;;5023282;28;20040;-66
2021/06/16 12:36:23;;;;;;;5.10;1.70;;;30.40;55.10;;;;;;5017486;28;20047;-66
2021/06/16 12:38:54;;;;;;;8.40;2.30;;;30.30;55.60;;;;;;5022451;28;20512;-68
2021/06/16 12:41:35;;;;;;;5.88;2.25;;;30.10;56.10;;;;;;5022428;28;20037;-66
2021/06/16 12:44:19;;;;;;;4.35;1.98;;;29.90;56.20;;;;;;5019082;28;20064;-67
2021/06/16 12:47:11;;;;;;;5.35;2.30;;;30.00;56.70;;;;;;5021396;28;20393;-67
2021/06/16 12:49:46;;;;;;;10.20;2.45;;;30.10;57.00;;;;;;5004574;28;20038;-66
2021/06/16 12:52:14;;;;;;;4.57;1.83;;;30.00;57.20;;;;;;5020784;28;20045;-66
2021/06/16 12:54:42;;;;;;;6.43;1.92;;;30.10;57.50;;;;;;5021806;28;20580;-65